sensor_id;sensor_type;location;lat;lon;timestamp;P1;durP1;ratioP1;P2;durP2;ratioP2
44026;SDS011;29696;55.698;37.460;2022-09-29T00:00:59;6.00;;;4.03;;
44026;SDS011;29696;55.698;37.460;2022-09-29T00:03:27;4.80;;;3.57;;
44026;SDS011;29696;55.698;37.460;2022-09-29T00:05:54;8.20;;;5.10;;
44026;SDS011;29696;55.698;37.460;2022-09-29T00:08:22;7.73;;;4.67;;
44026;SDS011;29696;55.698;37.460;2022-09-29T00:10:51;9.13;;;5.87;;
44026;SDS011;29696;55.698;37.460;2022-09-29T00:13:18;5.60;;;4.93;;
44026;SDS011;29696;55.698;37.460;2022-09-29T00:15:53;8.20;;;5.70;;
44026;SDS011;29696;55.698;37.460;2022-09-29T00:18:24;11.60;;;4.93;;
44026;SDS011;29696;55.698;37.460;2022-09-29T00:21:04;6.07;;;4.77;;
44026;SDS011;29696;55.698;37.460;2022-09-29T00:23:33;5.10;;;4.20;;
44026;SDS011;29696;55.698;37.460;2022-09-29T00:28:53;5.73;;;4.73;;
44026;SDS011;29696;55.698;37.460;2022-09-29T00:31:22;10.87;;;5.27;;
44026;SDS011;29696;55.698;37.460;2022-09-29T00:33:53;8.10;;;5.00;;
44026;SDS011;29696;55.698;37.460;2022-09-29T00:36:20;7.83;;;5.73;;
44026;SDS011;29696;55.698;37.460;2022-09-29T00:38:48;6.67;;;5.80;;
44026;SDS011;29696;55.698;37.460;2022-09-29T00:41:18;7.83;;;5.20;;
44026;SDS011;29696;55.698;37.460;2022-09-29T00:43:51;4.93;;;4.47;;
44026;SDS011;29696;55.698;37.460;2022-09-29T00:46:50;9.07;;;5.70;;
44026;SDS011;29696;55.698;37.460;2022-09-29T00:52:28;7.07;;;5.10;;
44026;SDS011;29696;55.698;37.460;2022-09-29T00:55:06;5.33;;;4.67;;
44026;SDS011;29696;55.698;37.460;2022-09-29T00:58:02;7.87;;;4.53;;
44026;SDS011;29696;55.698;37.460;2022-09-29T01:00:37;8.47;;;5.70;;
44026;SDS011;29696;55.698;37.460;2022-09-29T01:03:09;9.67;;;6.43;;
44026;SDS011;29696;55.698;37.460;2022-09-29T01:05:41;6.53;;;4.63;;
44026;SDS011;29696;55.698;37.460;2022-09-29T01:08:14;10.10;;;4.77;;
44026;SDS011;29696;55.698;37.460;2022-09-29T01:10:45;7.37;;;4.77;;
44026;SDS011;29696;55.698;37.460;2022-09-29T01:13:13;6.33;;;4.67;;
44026;SDS011;29696;55.698;37.460;2022-09-29T01:15:39;6.47;;;4.60;;
44026;SDS011;29696;55.698;37.460;2022-09-29T01:18:06;7.17;;;5.73;;
44026;SDS011;29696;55.698;37.460;2022-09-29T01:20:34;6.17;;;4.63;;
44026;SDS011;29696;55.698;37.460;2022-09-29T01:27:11;8.00;;;4.60;;
44026;SDS011;29696;55.698;37.460;2022-09-29T01:45:49;8.93;;;6.63;;
44026;SDS011;29696;55.698;37.460;2022-09-29T01:48:25;7.87;;;6.27;;
44026;SDS011;29696;55.698;37.460;2022-09-29T01:50:55;7.93;;;6.47;;
44026;SDS011;29696;55.698;37.460;2022-09-29T01:53:29;7.67;;;6.87;;
44026;SDS011;29696;55.698;37.460;2022-09-29T01:56:03;7.90;;;6.43;;
44026;SDS011;29696;55.698;37.460;2022-09-29T01:58:37;7.70;;;5.70;;
44026;SDS011;29696;55.698;37.460;2022-09-29T02:01:11;6.57;;;5.40;;
44026;SDS011;29696;55.698;37.460;2022-09-29T02:03:47;9.40;;;6.00;;
44026;SDS011;29696;55.698;37.460;2022-09-29T02:06:24;6.77;;;5.37;;
44026;SDS011;29696;55.698;37.460;2022-09-29T02:08:54;9.00;;;6.13;;
44026;SDS011;29696;55.698;37.460;2022-09-29T02:11:23;6.90;;;5.10;;
44026;SDS011;29696;55.698;37.460;2022-09-29T02:14:04;12.87;;;5.70;;
44026;SDS011;29696;55.698;37.460;2022-09-29T02:17:05;5.70;;;5.17;;
44026;SDS011;29696;55.698;37.460;2022-09-29T02:19:37;6.70;;;5.23;;
44026;SDS011;29696;55.698;37.460;2022-09-29T02:22:07;6.50;;;5.37;;
44026;SDS011;29696;55.698;37.460;2022-09-29T02:24:34;6.30;;;5.47;;
44026;SDS011;29696;55.698;37.460;2022-09-29T02:27:01;7.60;;;5.37;;
44026;SDS011;29696;55.698;37.460;2022-09-29T02:29:28;6.87;;;4.57;;
44026;SDS011;29696;55.698;37.460;2022-09-29T02:31:55;6.13;;;5.53;;
44026;SDS011;29696;55.698;37.460;2022-09-29T02:34:26;7.50;;;5.13;;
44026;SDS011;29696;55.698;37.460;2022-09-29T02:40:43;5.17;;;4.57;;
44026;SDS011;29696;55.698;37.460;2022-09-29T02:53:29;4.90;;;4.17;;
44026;SDS011;29696;55.698;37.460;2022-09-29T02:56:09;6.40;;;5.07;;
44026;SDS011;29696;55.698;37.460;2022-09-29T02:58:58;5.53;;;4.80;;
44026;SDS011;29696;55.698;37.460;2022-09-29T03:01:38;7.13;;;5.43;;
44026;SDS011;29696;55.698;37.460;2022-09-29T03:04:13;5.37;;;4.57;;
44026;SDS011;29696;55.698;37.460;2022-09-29T03:06:40;5.43;;;4.77;;
44026;SDS011;29696;55.698;37.460;2022-09-29T03:09:06;5.57;;;4.47;;
44026;SDS011;29696;55.698;37.460;2022-09-29T03:11:32;11.83;;;5.23;;
44026;SDS011;29696;55.698;37.460;2022-09-29T03:13:58;5.60;;;4.63;;
44026;SDS011;29696;55.698;37.460;2022-09-29T03:16:25;10.23;;;5.10;;
44026;SDS011;29696;55.698;37.460;2022-09-29T03:18:51;7.73;;;5.07;;
44026;SDS011;29696;55.698;37.460;2022-09-29T03:21:18;6.60;;;5.53;;
44026;SDS011;29696;55.698;37.460;2022-09-29T03:23:44;7.07;;;4.73;;
44026;SDS011;29696;55.698;37.460;2022-09-29T03:26:10;5.93;;;5.33;;
44026;SDS011;29696;55.698;37.460;2022-09-29T03:28:36;5.37;;;4.70;;
44026;SDS011;29696;55.698;37.460;2022-09-29T03:31:06;5.50;;;4.60;;
44026;SDS011;29696;55.698;37.460;2022-09-29T03:33:34;5.63;;;4.80;;
44026;SDS011;29696;55.698;37.460;2022-09-29T03:36:03;8.53;;;5.43;;
44026;SDS011;29696;55.698;37.460;2022-09-29T03:38:33;10.43;;;5.33;;
44026;SDS011;29696;55.698;37.460;2022-09-29T03:41:00;5.63;;;5.03;;
44026;SDS011;29696;55.698;37.460;2022-09-29T03:43:26;6.73;;;5.37;;
44026;SDS011;29696;55.698;37.460;2022-09-29T03:45:53;6.93;;;5.03;;
44026;SDS011;29696;55.698;37.460;2022-09-29T03:48:20;6.37;;;5.23;;
44026;SDS011;29696;55.698;37.460;2022-09-29T03:50:48;6.23;;;4.93;;
44026;SDS011;29696;55.698;37.460;2022-09-29T03:53:16;7.97;;;6.23;;
44026;SDS011;29696;55.698;37.460;2022-09-29T03:55:46;6.43;;;4.97;;
44026;SDS011;29696;55.698;37.460;2022-09-29T03:58:13;8.33;;;4.60;;
44026;SDS011;29696;55.698;37.460;2022-09-29T04:00:40;4.80;;;4.17;;
44026;SDS011;29696;55.698;37.460;2022-09-29T04:03:07;9.27;;;5.70;;
44026;SDS011;29696;55.698;37.460;2022-09-29T04:05:33;5.33;;;4.40;;
44026;SDS011;29696;55.698;37.460;2022-09-29T04:08:06;6.27;;;4.83;;
44026;SDS011;29696;55.698;37.460;2022-09-29T04:10:34;8.53;;;5.37;;
44026;SDS011;29696;55.698;37.460;2022-09-29T04:13:01;8.07;;;5.00;;
44026;SDS011;29696;55.698;37.460;2022-09-29T04:15:27;6.23;;;5.13;;
44026;SDS011;29696;55.698;37.460;2022-09-29T04:17:54;8.27;;;5.87;;
44026;SDS011;29696;55.698;37.460;2022-09-29T04:20:20;6.47;;;4.43;;
44026;SDS011;29696;55.698;37.460;2022-09-29T04:22:47;5.97;;;4.37;;
44026;SDS011;29696;55.698;37.460;2022-09-29T04:25:13;7.60;;;4.97;;
44026;SDS011;29696;55.698;37.460;2022-09-29T04:27:39;8.73;;;5.43;;
44026;SDS011;29696;55.698;37.460;2022-09-29T04:30:06;5.63;;;4.57;;
44026;SDS011;29696;55.698;37.460;2022-09-29T04:32:33;5.23;;;4.27;;
44026;SDS011;29696;55.698;37.460;2022-09-29T04:34:59;7.47;;;5.20;;
44026;SDS011;29696;55.698;37.460;2022-09-29T04:37:25;6.83;;;5.10;;
44026;SDS011;29696;55.698;37.460;2022-09-29T04:39:53;5.63;;;4.57;;
44026;SDS011;29696;55.698;37.460;2022-09-29T04:42:19;5.63;;;4.70;;
44026;SDS011;29696;55.698;37.460;2022-09-29T04:44:46;6.17;;;4.37;;
44026;SDS011;29696;55.698;37.460;2022-09-29T04:47:12;6.03;;;4.33;;
44026;SDS011;29696;55.698;37.460;2022-09-29T04:49:38;6.53;;;5.37;;
44026;SDS011;29696;55.698;37.460;2022-09-29T04:52:05;6.23;;;4.33;;
44026;SDS011;29696;55.698;37.460;2022-09-29T04:54:31;9.00;;;5.03;;
44026;SDS011;29696;55.698;37.460;2022-09-29T04:56:59;12.37;;;5.07;;
44026;SDS011;29696;55.698;37.460;2022-09-29T04:59:26;7.93;;;4.20;;
44026;SDS011;29696;55.698;37.460;2022-09-29T05:01:53;10.00;;;5.20;;
44026;SDS011;29696;55.698;37.460;2022-09-29T05:04:19;10.47;;;5.40;;
44026;SDS011;29696;55.698;37.460;2022-09-29T05:06:46;8.10;;;5.23;;
44026;SDS011;29696;55.698;37.460;2022-09-29T05:09:12;6.40;;;5.53;;
44026;SDS011;29696;55.698;37.460;2022-09-29T05:11:39;5.57;;;4.80;;
44026;SDS011;29696;55.698;37.460;2022-09-29T05:14:05;6.67;;;4.70;;
44026;SDS011;29696;55.698;37.460;2022-09-29T05:16:31;11.67;;;5.13;;
44026;SDS011;29696;55.698;37.460;2022-09-29T05:18:58;7.60;;;6.03;;
44026;SDS011;29696;55.698;37.460;2022-09-29T05:21:24;7.80;;;6.20;;
44026;SDS011;29696;55.698;37.460;2022-09-29T05:23:50;7.10;;;5.50;;
44026;SDS011;29696;55.698;37.460;2022-09-29T05:26:17;5.10;;;4.60;;
44026;SDS011;29696;55.698;37.460;2022-09-29T05:28:44;10.70;;;5.40;;
44026;SDS011;29696;55.698;37.460;2022-09-29T05:31:12;7.63;;;4.93;;
44026;SDS011;29696;55.698;37.460;2022-09-29T05:33:39;7.30;;;4.67;;
44026;SDS011;29696;55.698;37.460;2022-09-29T05:36:07;8.07;;;5.77;;
44026;SDS011;29696;55.698;37.460;2022-09-29T05:38:35;10.57;;;6.13;;
44026;SDS011;29696;55.698;37.460;2022-09-29T05:41:03;12.17;;;7.63;;
44026;SDS011;29696;55.698;37.460;2022-09-29T05:43:30;10.33;;;6.77;;
44026;SDS011;29696;55.698;37.460;2022-09-29T05:46:00;15.33;;;7.90;;
44026;SDS011;29696;55.698;37.460;2022-09-29T05:48:28;14.97;;;8.17;;
44026;SDS011;29696;55.698;37.460;2022-09-29T05:50:55;11.90;;;7.77;;
44026;SDS011;29696;55.698;37.460;2022-09-29T05:53:22;13.07;;;8.57;;
44026;SDS011;29696;55.698;37.460;2022-09-29T05:55:49;13.03;;;8.77;;
44026;SDS011;29696;55.698;37.460;2022-09-29T05:58:15;15.70;;;10.17;;
44026;SDS011;29696;55.698;37.460;2022-09-29T06:00:42;16.73;;;9.77;;
44026;SDS011;29696;55.698;37.460;2022-09-29T06:03:08;13.63;;;9.77;;
44026;SDS011;29696;55.698;37.460;2022-09-29T06:05:37;16.57;;;10.03;;
44026;SDS011;29696;55.698;37.460;2022-09-29T06:08:04;16.67;;;10.30;;
44026;SDS011;29696;55.698;37.460;2022-09-29T06:10:31;14.10;;;9.67;;
44026;SDS011;29696;55.698;37.460;2022-09-29T06:12:59;17.53;;;10.77;;
44026;SDS011;29696;55.698;37.460;2022-09-29T06:15:26;14.67;;;9.97;;
44026;SDS011;29696;55.698;37.460;2022-09-29T06:17:56;14.00;;;10.57;;
44026;SDS011;29696;55.698;37.460;2022-09-29T06:20:23;15.53;;;11.63;;
44026;SDS011;29696;55.698;37.460;2022-09-29T06:22:53;22.63;;;12.17;;
44026;SDS011;29696;55.698;37.460;2022-09-29T06:25:20;14.03;;;11.23;;
44026;SDS011;29696;55.698;37.460;2022-09-29T06:27:47;17.80;;;10.50;;
44026;SDS011;29696;55.698;37.460;2022-09-29T06:30:14;19.23;;;11.23;;
44026;SDS011;29696;55.698;37.460;2022-09-29T06:32:40;24.93;;;12.37;;
44026;SDS011;29696;55.698;37.460;2022-09-29T06:35:07;18.93;;;12.37;;
44026;SDS011;29696;55.698;37.460;2022-09-29T06:37:52;17.98;;;11.20;;
44026;SDS011;29696;55.698;37.460;2022-09-29T06:40:21;19.67;;;12.10;;
44026;SDS011;29696;55.698;37.460;2022-09-29T06:42:48;21.87;;;10.43;;
44026;SDS011;29696;55.698;37.460;2022-09-29T06:45:15;12.87;;;10.97;;
44026;SDS011;29696;55.698;37.460;2022-09-29T06:47:41;17.97;;;11.70;;
44026;SDS011;29696;55.698;37.460;2022-09-29T06:50:07;13.23;;;10.53;;
44026;SDS011;29696;55.698;37.460;2022-09-29T06:52:59;20.27;;;10.17;;
44026;SDS011;29696;55.698;37.460;2022-09-29T06:55:25;16.27;;;9.67;;
44026;SDS011;29696;55.698;37.460;2022-09-29T06:58:17;17.53;;;10.23;;
44026;SDS011;29696;55.698;37.460;2022-09-29T07:00:43;15.10;;;9.53;;
44026;SDS011;29696;55.698;37.460;2022-09-29T07:03:09;15.07;;;11.53;;
44026;SDS011;29696;55.698;37.460;2022-09-29T07:05:36;20.27;;;12.63;;
44026;SDS011;29696;55.698;37.460;2022-09-29T07:08:02;20.60;;;11.80;;
44026;SDS011;29696;55.698;37.460;2022-09-29T07:10:29;25.57;;;13.93;;
44026;SDS011;29696;55.698;37.460;2022-09-29T07:13:21;16.03;;;10.77;;
44026;SDS011;29696;55.698;37.460;2022-09-29T07:15:47;19.20;;;12.43;;
44026;SDS011;29696;55.698;37.460;2022-09-29T07:18:13;18.80;;;12.17;;
44026;SDS011;29696;55.698;37.460;2022-09-29T07:20:40;22.30;;;12.13;;
44026;SDS011;29696;55.698;37.460;2022-09-29T07:23:06;16.47;;;11.43;;
44026;SDS011;29696;55.698;37.460;2022-09-29T07:25:34;13.37;;;9.93;;
44026;SDS011;29696;55.698;37.460;2022-09-29T07:28:00;17.98;;;11.55;;
44026;SDS011;29696;55.698;37.460;2022-09-29T07:30:27;15.03;;;10.73;;
44026;SDS011;29696;55.698;37.460;2022-09-29T07:32:54;20.93;;;12.13;;
44026;SDS011;29696;55.698;37.460;2022-09-29T07:35:20;21.57;;;13.73;;
44026;SDS011;29696;55.698;37.460;2022-09-29T07:37:50;17.90;;;12.47;;
44026;SDS011;29696;55.698;37.460;2022-09-29T07:40:20;18.33;;;12.15;;
44026;SDS011;29696;55.698;37.460;2022-09-29T07:42:47;15.93;;;10.25;;
44026;SDS011;29696;55.698;37.460;2022-09-29T07:45:15;17.42;;;10.35;;
44026;SDS011;29696;55.698;37.460;2022-09-29T07:47:44;18.08;;;13.20;;
44026;SDS011;29696;55.698;37.460;2022-09-29T07:50:11;23.75;;;13.18;;
44026;SDS011;29696;55.698;37.460;2022-09-29T07:52:38;17.55;;;11.23;;
44026;SDS011;29696;55.698;37.460;2022-09-29T07:55:04;13.82;;;10.90;;
44026;SDS011;29696;55.698;37.460;2022-09-29T07:57:32;16.65;;;10.00;;
44026;SDS011;29696;55.698;37.460;2022-09-29T07:59:58;14.95;;;10.52;;
44026;SDS011;29696;55.698;37.460;2022-09-29T08:02:24;16.67;;;10.95;;
44026;SDS011;29696;55.698;37.460;2022-09-29T08:04:51;12.55;;;10.60;;
44026;SDS011;29696;55.698;37.460;2022-09-29T08:07:17;22.40;;;11.95;;
44026;SDS011;29696;55.698;37.460;2022-09-29T08:09:43;14.38;;;10.43;;
44026;SDS011;29696;55.698;37.460;2022-09-29T08:12:34;11.55;;;10.15;;
44026;SDS011;29696;55.698;37.460;2022-09-29T08:15:01;16.52;;;10.48;;
44026;SDS011;29696;55.698;37.460;2022-09-29T08:17:27;14.60;;;10.73;;
44026;SDS011;29696;55.698;37.460;2022-09-29T08:19:53;20.67;;;10.35;;
44026;SDS011;29696;55.698;37.460;2022-09-29T08:22:19;19.83;;;11.02;;
44026;SDS011;29696;55.698;37.460;2022-09-29T08:24:46;12.77;;;8.60;;
44026;SDS011;29696;55.698;37.460;2022-09-29T08:27:12;15.45;;;9.95;;
44026;SDS011;29696;55.698;37.460;2022-09-29T08:29:39;16.35;;;9.63;;
44026;SDS011;29696;55.698;37.460;2022-09-29T08:32:07;18.52;;;10.63;;
44026;SDS011;29696;55.698;37.460;2022-09-29T08:34:33;17.48;;;10.43;;
44026;SDS011;29696;55.698;37.460;2022-09-29T08:36:59;14.35;;;9.77;;
44026;SDS011;29696;55.698;37.460;2022-09-29T08:39:25;16.80;;;13.32;;
44026;SDS011;29696;55.698;37.460;2022-09-29T08:42:00;13.07;;;9.50;;
44026;SDS011;29696;55.698;37.460;2022-09-29T08:45:10;14.05;;;10.45;;
44026;SDS011;29696;55.698;37.460;2022-09-29T08:47:42;16.02;;;10.88;;
44026;SDS011;29696;55.698;37.460;2022-09-29T08:50:13;15.88;;;10.60;;
44026;SDS011;29696;55.698;37.460;2022-09-29T08:52:48;20.67;;;10.32;;
44026;SDS011;29696;55.698;37.460;2022-09-29T08:55:39;15.07;;;10.80;;
44026;SDS011;29696;55.698;37.460;2022-09-29T08:58:12;16.70;;;10.50;;
44026;SDS011;29696;55.698;37.460;2022-09-29T09:00:54;13.25;;;8.25;;
44026;SDS011;29696;55.698;37.460;2022-09-29T09:04:05;16.80;;;10.68;;
44026;SDS011;29696;55.698;37.460;2022-09-29T09:23:31;15.43;;;9.40;;
44026;SDS011;29696;55.698;37.460;2022-09-29T09:26:31;13.75;;;9.32;;
44026;SDS011;29696;55.698;37.460;2022-09-29T09:29:03;11.15;;;7.82;;
44026;SDS011;29696;55.698;37.460;2022-09-29T09:31:48;9.60;;;7.75;;
44026;SDS011;29696;55.698;37.460;2022-09-29T09:34:20;12.60;;;8.65;;
44026;SDS011;29696;55.698;37.460;2022-09-29T09:37:10;18.73;;;10.43;;
44026;SDS011;29696;55.698;37.460;2022-09-29T09:51:29;10.23;;;7.70;;
44026;SDS011;29696;55.698;37.460;2022-09-29T09:54:19;14.85;;;9.88;;
44026;SDS011;29696;55.698;37.460;2022-09-29T10:00:40;11.30;;;7.90;;
44026;SDS011;29696;55.698;37.460;2022-09-29T10:03:10;13.95;;;8.93;;
44026;SDS011;29696;55.698;37.460;2022-09-29T10:05:41;11.48;;;8.15;;
44026;SDS011;29696;55.698;37.460;2022-09-29T10:08:23;11.95;;;7.40;;
44026;SDS011;29696;55.698;37.460;2022-09-29T10:10:55;10.32;;;8.02;;
44026;SDS011;29696;55.698;37.460;2022-09-29T10:13:23;10.52;;;8.85;;
44026;SDS011;29696;55.698;37.460;2022-09-29T10:18:49;9.88;;;8.23;;
44026;SDS011;29696;55.698;37.460;2022-09-29T10:21:22;10.25;;;7.15;;
44026;SDS011;29696;55.698;37.460;2022-09-29T10:24:01;12.25;;;7.20;;
44026;SDS011;29696;55.698;37.460;2022-09-29T10:29:28;9.45;;;7.03;;
44026;SDS011;29696;55.698;37.460;2022-09-29T10:32:06;8.80;;;6.68;;
44026;SDS011;29696;55.698;37.460;2022-09-29T10:34:40;9.23;;;7.35;;
44026;SDS011;29696;55.698;37.460;2022-09-29T10:40:02;9.95;;;7.45;;
44026;SDS011;29696;55.698;37.460;2022-09-29T10:42:40;8.23;;;7.03;;
44026;SDS011;29696;55.698;37.460;2022-09-29T10:48:12;11.55;;;7.70;;
44026;SDS011;29696;55.698;37.460;2022-09-29T10:53:49;18.20;;;8.23;;
44026;SDS011;29696;55.698;37.460;2022-09-29T10:59:04;10.63;;;7.25;;
44026;SDS011;29696;55.698;37.460;2022-09-29T11:01:31;10.25;;;7.72;;
44026;SDS011;29696;55.698;37.460;2022-09-29T11:04:02;10.18;;;7.88;;
44026;SDS011;29696;55.698;37.460;2022-09-29T11:06:35;10.77;;;7.63;;
44026;SDS011;29696;55.698;37.460;2022-09-29T11:12:24;24.75;;;8.65;;
44026;SDS011;29696;55.698;37.460;2022-09-29T11:15:37;13.38;;;9.57;;
44026;SDS011;29696;55.698;37.460;2022-09-29T11:18:18;10.55;;;7.95;;
44026;SDS011;29696;55.698;37.460;2022-09-29T11:20:48;19.25;;;9.05;;
44026;SDS011;29696;55.698;37.460;2022-09-29T11:23:37;12.57;;;8.23;;
44026;SDS011;29696;55.698;37.460;2022-09-29T11:26:32;8.77;;;7.40;;
44026;SDS011;29696;55.698;37.460;2022-09-29T11:29:52;14.70;;;9.43;;
44026;SDS011;29696;55.698;37.460;2022-09-29T11:45:41;17.85;;;9.85;;
44026;SDS011;29696;55.698;37.460;2022-09-29T11:51:56;9.80;;;7.50;;
44026;SDS011;29696;55.698;37.460;2022-09-29T12:12:29;25.63;;;12.40;;
44026;SDS011;29696;55.698;37.460;2022-09-29T12:22:07;14.65;;;8.60;;
44026;SDS011;29696;55.698;37.460;2022-09-29T12:24:26;16.10;;;9.77;;
44026;SDS011;29696;55.698;37.460;2022-09-29T12:27:24;20.63;;;10.05;;
44026;SDS011;29696;55.698;37.460;2022-09-29T12:33:01;19.60;;;11.93;;
44026;SDS011;29696;55.698;37.460;2022-09-29T12:35:34;17.80;;;11.10;;
44026;SDS011;29696;55.698;37.460;2022-09-29T12:38:17;19.05;;;9.50;;
44026;SDS011;29696;55.698;37.460;2022-09-29T12:43:57;14.80;;;9.35;;
44026;SDS011;29696;55.698;37.460;2022-09-29T12:52:40;16.40;;;9.80;;
44026;SDS011;29696;55.698;37.460;2022-09-29T12:58:53;24.65;;;12.20;;
44026;SDS011;29696;55.698;37.460;2022-09-29T13:09:08;17.05;;;9.35;;
44026;SDS011;29696;55.698;37.460;2022-09-29T13:11:52;15.23;;;8.80;;
44026;SDS011;29696;55.698;37.460;2022-09-29T13:18:24;15.55;;;8.20;;
44026;SDS011;29696;55.698;37.460;2022-09-29T13:21:52;16.17;;;9.32;;
44026;SDS011;29696;55.698;37.460;2022-09-29T13:24:43;14.82;;;8.35;;
44026;SDS011;29696;55.698;37.460;2022-09-29T13:27:31;9.88;;;7.63;;
44026;SDS011;29696;55.698;37.460;2022-09-29T13:32:56;19.02;;;8.27;;
44026;SDS011;29696;55.698;37.460;2022-09-29T13:35:47;20.08;;;9.65;;
44026;SDS011;29696;55.698;37.460;2022-09-29T13:44:05;22.95;;;8.77;;
44026;SDS011;29696;55.698;37.460;2022-09-29T13:50:01;13.40;;;9.05;;
44026;SDS011;29696;55.698;37.460;2022-09-29T13:52:48;15.10;;;9.45;;
44026;SDS011;29696;55.698;37.460;2022-09-29T14:01:40;18.08;;;9.90;;
44026;SDS011;29696;55.698;37.460;2022-09-29T14:07:33;22.15;;;8.57;;
44026;SDS011;29696;55.698;37.460;2022-09-29T14:10:06;16.98;;;8.95;;
44026;SDS011;29696;55.698;37.460;2022-09-29T14:12:55;19.23;;;9.18;;
44026;SDS011;29696;55.698;37.460;2022-09-29T14:15:27;24.42;;;9.07;;
44026;SDS011;29696;55.698;37.460;2022-09-29T14:18:00;17.02;;;9.57;;
44026;SDS011;29696;55.698;37.460;2022-09-29T14:20:32;22.02;;;10.38;;
44026;SDS011;29696;55.698;37.460;2022-09-29T14:26:39;13.18;;;7.93;;
44026;SDS011;29696;55.698;37.460;2022-09-29T14:29:29;13.45;;;7.82;;
44026;SDS011;29696;55.698;37.460;2022-09-29T14:31:59;22.88;;;11.63;;
44026;SDS011;29696;55.698;37.460;2022-09-29T14:34:27;19.42;;;9.48;;
44026;SDS011;29696;55.698;37.460;2022-09-29T14:36:57;19.27;;;9.13;;
44026;SDS011;29696;55.698;37.460;2022-09-29T14:39:25;17.50;;;8.63;;
44026;SDS011;29696;55.698;37.460;2022-09-29T14:41:54;23.20;;;11.38;;
44026;SDS011;29696;55.698;37.460;2022-09-29T14:44:28;17.50;;;9.95;;
44026;SDS011;29696;55.698;37.460;2022-09-29T14:57:43;14.93;;;9.13;;
44026;SDS011;29696;55.698;37.460;2022-09-29T15:06:31;15.75;;;8.50;;
44026;SDS011;29696;55.698;37.460;2022-09-29T15:08:58;13.55;;;8.18;;
44026;SDS011;29696;55.698;37.460;2022-09-29T15:14:42;14.40;;;8.48;;
44026;SDS011;29696;55.698;37.460;2022-09-29T15:27:02;16.38;;;7.35;;
44026;SDS011;29696;55.698;37.460;2022-09-29T15:29:31;19.00;;;8.07;;
44026;SDS011;29696;55.698;37.460;2022-09-29T15:31:57;9.18;;;7.93;;
44026;SDS011;29696;55.698;37.460;2022-09-29T15:34:24;12.27;;;8.02;;
44026;SDS011;29696;55.698;37.460;2022-09-29T15:36:51;14.70;;;9.63;;
44026;SDS011;29696;55.698;37.460;2022-09-29T15:42:20;13.45;;;9.02;;
44026;SDS011;29696;55.698;37.460;2022-09-29T15:44:57;22.52;;;11.55;;
44026;SDS011;29696;55.698;37.460;2022-09-29T15:47:38;12.38;;;8.38;;
44026;SDS011;29696;55.698;37.460;2022-09-29T15:50:22;14.48;;;9.60;;
44026;SDS011;29696;55.698;37.460;2022-09-29T15:52:50;16.80;;;9.27;;
44026;SDS011;29696;55.698;37.460;2022-09-29T15:55:18;14.73;;;9.98;;
44026;SDS011;29696;55.698;37.460;2022-09-29T15:57:47;14.82;;;8.85;;
44026;SDS011;29696;55.698;37.460;2022-09-29T16:06:32;11.73;;;8.77;;
44026;SDS011;29696;55.698;37.460;2022-09-29T16:09:05;16.90;;;10.02;;
44026;SDS011;29696;55.698;37.460;2022-09-29T16:11:42;18.25;;;10.50;;
44026;SDS011;29696;55.698;37.460;2022-09-29T16:14:09;12.48;;;8.80;;
44026;SDS011;29696;55.698;37.460;2022-09-29T16:16:56;24.65;;;9.63;;
44026;SDS011;29696;55.698;37.460;2022-09-29T16:19:24;19.13;;;10.70;;
44026;SDS011;29696;55.698;37.460;2022-09-29T16:21:56;21.10;;;10.52;;
44026;SDS011;29696;55.698;37.460;2022-09-29T16:24:32;16.50;;;11.05;;
44026;SDS011;29696;55.698;37.460;2022-09-29T16:27:00;13.85;;;11.20;;
44026;SDS011;29696;55.698;37.460;2022-09-29T16:29:29;22.58;;;10.93;;
44026;SDS011;29696;55.698;37.460;2022-09-29T16:32:42;16.07;;;12.00;;
44026;SDS011;29696;55.698;37.460;2022-09-29T16:38:31;22.95;;;11.77;;
44026;SDS011;29696;55.698;37.460;2022-09-29T16:41:34;17.40;;;10.40;;
44026;SDS011;29696;55.698;37.460;2022-09-29T16:44:40;20.45;;;11.57;;
44026;SDS011;29696;55.698;37.460;2022-09-29T16:50:00;27.57;;;12.67;;
44026;SDS011;29696;55.698;37.460;2022-09-29T16:52:49;19.40;;;11.50;;
44026;SDS011;29696;55.698;37.460;2022-09-29T16:55:17;19.02;;;12.73;;
44026;SDS011;29696;55.698;37.460;2022-09-29T17:00:55;15.52;;;11.52;;
44026;SDS011;29696;55.698;37.460;2022-09-29T17:03:21;15.85;;;10.90;;
44026;SDS011;29696;55.698;37.460;2022-09-29T17:05:48;17.02;;;11.88;;
44026;SDS011;29696;55.698;37.460;2022-09-29T17:08:22;16.65;;;11.43;;
44026;SDS011;29696;55.698;37.460;2022-09-29T17:10:51;18.23;;;12.45;;
44026;SDS011;29696;55.698;37.460;2022-09-29T17:13:19;14.50;;;11.27;;
44026;SDS011;29696;55.698;37.460;2022-09-29T17:15:47;12.75;;;10.23;;
44026;SDS011;29696;55.698;37.460;2022-09-29T17:18:16;15.02;;;9.30;;
44026;SDS011;29696;55.698;37.460;2022-09-29T17:20:44;17.55;;;11.93;;
44026;SDS011;29696;55.698;37.460;2022-09-29T17:23:10;18.02;;;11.50;;
44026;SDS011;29696;55.698;37.460;2022-09-29T17:25:38;13.32;;;10.45;;
44026;SDS011;29696;55.698;37.460;2022-09-29T17:28:13;18.53;;;10.93;;
44026;SDS011;29696;55.698;37.460;2022-09-29T17:30:42;13.63;;;10.10;;
44026;SDS011;29696;55.698;37.460;2022-09-29T17:33:15;13.60;;;9.63;;
44026;SDS011;29696;55.698;37.460;2022-09-29T17:35:45;17.87;;;10.90;;
44026;SDS011;29696;55.698;37.460;2022-09-29T17:38:13;17.15;;;10.23;;
44026;SDS011;29696;55.698;37.460;2022-09-29T17:40:51;14.25;;;10.20;;
44026;SDS011;29696;55.698;37.460;2022-09-29T17:43:41;16.40;;;10.57;;
44026;SDS011;29696;55.698;37.460;2022-09-29T17:46:11;15.07;;;11.00;;
44026;SDS011;29696;55.698;37.460;2022-09-29T17:48:39;12.10;;;10.30;;
44026;SDS011;29696;55.698;37.460;2022-09-29T17:51:13;15.10;;;10.90;;
44026;SDS011;29696;55.698;37.460;2022-09-29T17:53:43;16.87;;;12.07;;
44026;SDS011;29696;55.698;37.460;2022-09-29T17:56:18;12.23;;;9.97;;
44026;SDS011;29696;55.698;37.460;2022-09-29T17:58:47;16.53;;;10.97;;
44026;SDS011;29696;55.698;37.460;2022-09-29T18:01:15;19.97;;;10.97;;
44026;SDS011;29696;55.698;37.460;2022-09-29T18:03:44;14.57;;;9.73;;
44026;SDS011;29696;55.698;37.460;2022-09-29T18:06:17;11.80;;;9.30;;
44026;SDS011;29696;55.698;37.460;2022-09-29T18:08:50;13.03;;;10.20;;
44026;SDS011;29696;55.698;37.460;2022-09-29T18:11:18;10.63;;;8.63;;
44026;SDS011;29696;55.698;37.460;2022-09-29T18:13:46;14.47;;;10.10;;
44026;SDS011;29696;55.698;37.460;2022-09-29T18:16:15;13.60;;;10.40;;
44026;SDS011;29696;55.698;37.460;2022-09-29T18:18:45;12.75;;;9.63;;
44026;SDS011;29696;55.698;37.460;2022-09-29T18:21:38;17.45;;;10.48;;
44026;SDS011;29696;55.698;37.460;2022-09-29T18:24:04;13.30;;;9.80;;
44026;SDS011;29696;55.698;37.460;2022-09-29T18:26:31;17.63;;;12.03;;
44026;SDS011;29696;55.698;37.460;2022-09-29T18:28:57;14.57;;;10.57;;
44026;SDS011;29696;55.698;37.460;2022-09-29T18:31:24;11.70;;;9.73;;
44026;SDS011;29696;55.698;37.460;2022-09-29T18:33:53;12.00;;;9.03;;
44026;SDS011;29696;55.698;37.460;2022-09-29T18:36:20;12.13;;;9.37;;
44026;SDS011;29696;55.698;37.460;2022-09-29T18:38:46;15.70;;;10.30;;
44026;SDS011;29696;55.698;37.460;2022-09-29T18:41:14;12.50;;;9.50;;
44026;SDS011;29696;55.698;37.460;2022-09-29T18:43:45;10.33;;;8.63;;
44026;SDS011;29696;55.698;37.460;2022-09-29T18:46:12;11.97;;;9.80;;